createdAt,value
2018-10-17T00:00:49.380Z,11.99
2018-10-17T00:01:49.369Z,11.94
2018-10-17T00:02:49.366Z,11.90
2018-10-17T00:03:49.372Z,11.83
2018-10-17T00:04:49.365Z,11.78
2018-10-17T00:05:49.375Z,11.74
2018-10-17T00:06:49.360Z,11.80
2018-10-17T00:07:49.364Z,11.87
2018-10-17T00:08:49.358Z,11.85
2018-10-17T00:09:49.379Z,11.83
2018-10-17T00:10:49.359Z,11.90
2018-10-17T00:11:49.357Z,11.82
2018-10-17T00:12:49.355Z,11.89
2018-10-17T00:13:49.356Z,11.87
2018-10-17T00:14:49.357Z,11.89
2018-10-17T00:15:49.351Z,11.89
2018-10-17T00:16:49.365Z,11.83
2018-10-17T00:17:49.360Z,11.89
2018-10-17T00:18:49.344Z,11.86
2018-10-17T00:19:49.343Z,11.90
2018-10-17T00:20:49.341Z,11.78
2018-10-17T00:21:49.344Z,11.87
2018-10-17T00:22:49.341Z,12.05
2018-10-17T00:23:49.339Z,11.94
2018-10-17T00:24:49.339Z,11.87
2018-10-17T00:25:49.354Z,11.86
2018-10-17T00:26:49.336Z,11.86
2018-10-17T00:27:49.336Z,11.87
2018-10-17T00:28:49.332Z,11.90
2018-10-17T00:29:49.331Z,11.87
2018-10-17T00:30:49.329Z,11.90
2018-10-17T00:31:49.328Z,11.90
2018-10-17T00:32:49.330Z,11.97
2018-10-17T00:33:49.325Z,11.87
2018-10-17T00:34:49.325Z,11.97
2018-10-17T00:35:49.324Z,11.86
2018-10-17T00:36:49.323Z,11.85
2018-10-17T00:37:49.320Z,11.77
2018-10-17T00:38:49.319Z,11.77
2018-10-17T00:39:49.317Z,11.82
2018-10-17T00:40:49.316Z,11.72
2018-10-17T00:41:49.313Z,11.82
2018-10-17T00:42:49.311Z,11.78
2018-10-17T00:43:49.309Z,11.68
2018-10-17T00:44:49.310Z,11.71
2018-10-17T00:45:49.311Z,11.64
2018-10-17T00:46:49.304Z,11.65
2018-10-17T00:47:49.306Z,11.59
2018-10-17T00:48:49.305Z,11.56
2018-10-17T00:49:49.303Z,11.49
2018-10-17T00:50:49.318Z,11.56
2018-10-17T00:51:49.300Z,11.57
2018-10-17T00:52:49.296Z,11.44
2018-10-17T00:53:49.302Z,11.49
2018-10-17T00:54:49.295Z,11.64
2018-10-17T00:55:49.295Z,11.56
2018-10-17T00:56:49.291Z,11.49
2018-10-17T00:57:49.297Z,11.57
2018-10-17T00:58:49.287Z,11.59
2018-10-17T00:59:49.287Z,11.54
2018-10-17T01:00:49.286Z,11.67
2018-10-17T01:01:49.284Z,11.61
2018-10-17T01:02:49.283Z,11.52
2018-10-17T01:03:49.284Z,11.62
2018-10-17T01:04:49.287Z,11.57
2018-10-17T01:05:49.280Z,11.56
2018-10-17T01:06:49.276Z,11.59
2018-10-17T01:07:49.297Z,11.59
2018-10-17T01:08:49.273Z,11.53
2018-10-17T01:09:49.273Z,11.57
2018-10-17T01:10:49.282Z,11.54
2018-10-17T01:11:49.269Z,11.56
2018-10-17T01:12:49.271Z,11.65
2018-10-17T01:13:49.266Z,11.52
2018-10-17T01:14:49.265Z,11.62
2018-10-17T01:15:49.265Z,11.62
2018-10-17T01:16:49.263Z,11.59
2018-10-17T01:17:49.269Z,11.64
2018-10-17T01:18:49.257Z,11.52
2018-10-17T01:19:49.258Z,11.56
2018-10-17T01:20:49.256Z,11.61
2018-10-17T01:21:49.255Z,11.53
2018-10-17T01:22:49.253Z,11.47
2018-10-17T01:23:49.251Z,11.52
2018-10-17T01:24:49.250Z,11.49
2018-10-17T01:25:49.248Z,11.50
2018-10-17T01:26:49.247Z,11.44
2018-10-17T01:27:49.302Z,11.47
2018-10-17T01:28:49.248Z,11.46
2018-10-17T01:29:49.243Z,11.31
2018-10-17T01:30:49.240Z,11.34
2018-10-17T01:31:49.239Z,11.34
2018-10-17T01:32:49.236Z,11.34
2018-10-17T01:33:49.464Z,11.38
2018-10-17T01:34:49.254Z,11.36
2018-10-17T01:35:49.235Z,11.36
2018-10-17T01:36:49.232Z,11.38
2018-10-17T01:37:49.228Z,11.47
2018-10-17T01:38:49.228Z,11.43
2018-10-17T01:39:49.225Z,11.53
2018-10-17T01:40:49.225Z,11.44
2018-10-17T01:41:49.222Z,11.54
2018-10-17T01:42:49.221Z,11.46
2018-10-17T01:43:49.219Z,11.50
2018-10-17T01:44:49.219Z,11.50
2018-10-17T01:45:49.215Z,11.44
2018-10-17T01:46:49.211Z,11.50
2018-10-17T01:47:49.217Z,11.57
2018-10-17T01:48:49.208Z,11.49
2018-10-17T01:49:49.207Z,11.50
2018-10-17T01:50:49.206Z,11.47
2018-10-17T01:51:49.205Z,11.50
2018-10-17T01:52:49.205Z,11.53
2018-10-17T01:53:49.221Z,11.49
2018-10-17T01:54:49.205Z,11.54
2018-10-17T01:55:49.204Z,11.49
2018-10-17T01:56:49.198Z,11.50
2018-10-17T01:57:49.195Z,11.50
2018-10-17T01:58:49.193Z,11.53
2018-10-17T01:59:49.192Z,11.46
2018-10-17T02:00:49.190Z,11.47
2018-10-17T02:01:49.189Z,11.38
2018-10-17T02:02:49.185Z,11.38
2018-10-17T02:03:49.194Z,11.36
2018-10-17T02:04:49.187Z,11.39
2018-10-17T02:05:49.187Z,11.44
2018-10-17T02:06:49.185Z,11.36
2018-10-17T02:07:49.176Z,11.46
2018-10-17T02:08:49.181Z,11.39
2018-10-17T02:09:49.173Z,11.46
2018-10-17T02:10:49.174Z,11.41
2018-10-17T02:11:49.171Z,11.43
2018-10-17T02:12:49.169Z,11.41
2018-10-17T02:13:49.167Z,11.38
2018-10-17T02:14:49.172Z,11.38
2018-10-17T02:15:49.165Z,11.34
2018-10-17T02:16:49.164Z,11.36
2018-10-17T02:17:49.159Z,11.31
2018-10-17T02:18:49.160Z,11.27
2018-10-17T02:19:49.163Z,11.24
2018-10-17T02:20:49.173Z,11.20
2018-10-17T02:21:49.156Z,11.24
2018-10-17T02:22:49.167Z,11.17
2018-10-17T02:23:49.150Z,11.19
2018-10-17T02:24:49.159Z,11.20
2018-10-17T02:25:49.156Z,11.21
2018-10-17T02:26:49.159Z,11.19
2018-10-17T02:27:49.141Z,11.24
2018-10-17T02:28:49.178Z,11.21
2018-10-17T02:29:49.169Z,11.27
2018-10-17T02:30:49.140Z,11.17
2018-10-17T02:31:49.141Z,11.20
2018-10-17T02:32:49.137Z,11.21
2018-10-17T02:33:49.135Z,11.24
2018-10-17T02:34:49.132Z,11.27
2018-10-17T02:35:49.135Z,11.20
2018-10-17T02:36:49.129Z,11.19
2018-10-17T02:37:49.129Z,11.20
2018-10-17T02:38:49.159Z,11.27
2018-10-17T02:39:49.281Z,11.28
2018-10-17T02:40:49.176Z,11.21
2018-10-17T02:41:49.122Z,11.27
2018-10-17T02:42:49.127Z,11.25
2018-10-17T02:43:49.117Z,11.21
2018-10-17T02:44:49.119Z,11.14
2018-10-17T02:45:49.114Z,11.17
2018-10-17T02:46:49.112Z,11.25
2018-10-17T02:47:49.131Z,11.29
2018-10-17T02:48:49.109Z,11.20
2018-10-17T02:49:49.102Z,11.25
2018-10-17T02:50:49.105Z,11.17
2018-10-17T02:51:49.104Z,11.24
2018-10-17T02:53:41.997Z,11.21
2018-10-17T02:54:41.984Z,11.27
2018-10-17T02:56:34.863Z,11.24
2018-10-17T02:57:34.882Z,11.20
2018-10-17T02:59:27.727Z,11.19
2018-10-17T03:00:27.712Z,11.24
2018-10-17T03:02:20.754Z,11.13
2018-10-17T03:03:20.575Z,11.14
2018-10-17T03:05:14.076Z,11.10
2018-10-17T03:06:13.997Z,11.06
2018-10-17T03:08:07.430Z,11.01
2018-10-17T03:09:07.433Z,10.99
2018-10-17T03:11:00.337Z,11.06
2018-10-17T03:12:00.288Z,10.94
2018-10-17T03:13:54.237Z,11.02
2018-10-17T03:14:54.154Z,10.94
2018-10-17T03:16:47.039Z,10.98
2018-10-17T03:17:47.032Z,11.02
2018-10-17T03:19:39.885Z,10.94
2018-10-17T03:20:39.915Z,10.89
2018-10-17T03:22:32.866Z,10.91
2018-10-17T03:23:32.747Z,10.89
2018-10-17T03:25:25.643Z,10.92
2018-10-17T03:26:25.615Z,10.98
2018-10-17T03:28:18.566Z,10.99
2018-10-17T03:29:18.943Z,11.06
2018-10-17T03:31:12.043Z,10.98
2018-10-17T03:32:11.914Z,11.01
2018-10-17T03:33:11.914Z,10.98
2018-10-17T03:34:11.884Z,10.96
2018-10-17T03:35:11.965Z,10.86
2018-10-17T03:36:11.885Z,10.77
2018-10-17T03:37:11.982Z,10.83
2018-10-17T03:38:11.885Z,10.80
2018-10-17T03:39:12.352Z,10.73
2018-10-17T03:40:12.049Z,10.77
2018-10-17T03:41:11.945Z,10.77
2018-10-17T03:42:11.871Z,10.70
2018-10-17T03:43:11.914Z,10.68
2018-10-17T03:44:11.870Z,10.70
2018-10-17T03:45:11.863Z,10.71
2018-10-17T03:46:11.864Z,10.70
2018-10-17T03:47:11.924Z,10.76
2018-10-17T03:48:11.861Z,10.77
2018-10-17T03:49:11.942Z,10.76
2018-10-17T03:50:11.856Z,10.86
2018-10-17T03:51:11.850Z,10.89
2018-10-17T03:52:11.879Z,10.81
2018-10-17T03:53:11.946Z,10.95
2018-10-17T03:54:11.851Z,10.84
2018-10-17T03:55:11.905Z,10.94
2018-10-17T03:56:11.848Z,10.84
2018-10-17T03:57:11.841Z,10.88
2018-10-17T03:58:11.836Z,10.86
2018-10-17T03:59:11.944Z,10.86
2018-10-17T04:00:11.834Z,10.84
2018-10-17T04:01:11.881Z,10.76
2018-10-17T04:02:11.846Z,10.81
2018-10-17T04:03:11.891Z,10.84
2018-10-17T04:04:11.834Z,10.86
2018-10-17T04:05:11.917Z,10.91
2018-10-17T04:06:11.819Z,10.94
2018-10-17T04:07:11.841Z,10.95
2018-10-17T04:08:11.816Z,11.09
2018-10-17T04:09:11.814Z,10.94
2018-10-17T04:10:11.812Z,10.94
2018-10-17T04:11:11.911Z,10.88
2018-10-17T04:12:11.809Z,10.80
2018-10-17T04:13:11.882Z,10.81
2018-10-17T04:14:11.806Z,10.77
2018-10-17T04:15:11.801Z,10.71
2018-10-17T04:16:11.804Z,10.76
2018-10-17T04:17:11.834Z,10.66
2018-10-17T04:18:11.811Z,10.63
2018-10-17T04:19:11.840Z,10.56
2018-10-17T04:20:11.801Z,10.56
2018-10-17T04:21:11.791Z,10.51
2018-10-17T04:22:11.791Z,10.53
2018-10-17T04:51:47.211Z,10.59
2018-10-17T04:52:47.036Z,10.56
2018-10-17T04:53:47.035Z,10.62
2018-10-17T04:54:47.055Z,10.66
2018-10-17T04:55:47.041Z,10.71
2018-10-17T04:56:47.017Z,10.73
2018-10-17T04:57:47.039Z,10.65
2018-10-17T04:58:47.010Z,10.55
2018-10-17T04:59:47.049Z,10.51
2018-10-17T05:00:47.008Z,10.52
2018-10-17T05:01:47.171Z,10.52
2018-10-17T05:02:46.991Z,10.58
2018-10-17T05:03:46.989Z,10.51
2018-10-17T05:04:47.012Z,10.58
2018-10-17T05:05:46.980Z,10.52
2018-10-17T05:06:47.008Z,10.53
2018-10-17T05:07:46.975Z,10.58
2018-10-17T05:08:46.971Z,10.56
2018-10-17T05:09:46.968Z,10.53
2018-10-17T05:10:46.985Z,10.51
2018-10-17T05:11:46.966Z,10.56
2018-10-17T05:12:46.960Z,10.52
2018-10-17T05:13:46.959Z,10.55
2018-10-17T05:14:46.952Z,10.46
2018-10-17T05:15:46.950Z,10.52
2018-10-17T05:16:46.949Z,10.46
2018-10-17T05:17:46.945Z,10.55
2018-10-17T05:18:46.944Z,10.52
2018-10-17T05:19:46.941Z,10.59
2018-10-17T05:20:46.938Z,10.63
2018-10-17T05:21:46.948Z,10.63
2018-10-17T05:22:46.929Z,10.58
2018-10-17T05:23:46.928Z,10.62
2018-10-17T05:24:46.928Z,10.68
2018-10-17T05:25:46.925Z,10.70
2018-10-17T05:26:46.923Z,10.71
2018-10-17T05:27:46.930Z,10.68
2018-10-17T05:28:46.922Z,10.76
2018-10-17T05:29:47.002Z,10.77
2018-10-17T05:30:46.914Z,10.76
2018-10-17T05:31:46.911Z,10.77
2018-10-17T05:32:46.909Z,10.80
2018-10-17T05:33:46.904Z,10.74
2018-10-17T05:34:46.904Z,10.77
2018-10-17T05:35:46.904Z,10.78
2018-10-17T05:36:46.896Z,10.76
2018-10-17T05:37:46.983Z,10.83
2018-10-17T05:38:46.901Z,10.88
2018-10-17T05:39:46.892Z,10.88
2018-10-17T05:40:46.890Z,10.84
2018-10-17T05:41:46.899Z,10.94
2018-10-17T05:42:46.884Z,10.89
2018-10-17T05:43:46.882Z,10.84
2018-10-17T05:44:46.889Z,10.83
2018-10-17T05:45:46.889Z,10.83
2018-10-17T05:46:46.876Z,10.83
2018-10-17T05:47:46.874Z,10.86
2018-10-17T05:48:46.868Z,10.91
2018-10-17T05:49:46.872Z,10.86
2018-10-17T05:50:46.870Z,10.94
2018-10-17T05:51:46.869Z,10.91
2018-10-17T05:52:46.861Z,10.99
2018-10-17T05:53:46.860Z,10.94
2018-10-17T05:54:46.861Z,10.95
2018-10-17T05:55:46.857Z,10.99
2018-10-17T05:56:46.892Z,10.86
2018-10-17T05:57:46.854Z,10.89
2018-10-17T05:58:46.851Z,11.02
2018-10-17T05:59:46.850Z,11.02
2018-10-17T06:00:46.849Z,11.06
2018-10-17T06:01:46.957Z,11.09
2018-10-17T06:02:46.844Z,11.10
2018-10-17T06:03:46.841Z,11.17
2018-10-17T06:04:46.838Z,11.17
2018-10-17T06:05:46.851Z,11.10
2018-10-17T06:06:46.835Z,11.14
2018-10-17T06:07:46.835Z,11.21
2018-10-17T06:08:46.835Z,11.28
2018-10-17T06:09:46.831Z,11.28
2018-10-17T06:10:46.847Z,11.34
2018-10-17T06:11:46.828Z,11.46
2018-10-17T06:12:46.830Z,11.44
2018-10-17T06:13:46.824Z,11.44
2018-10-17T06:14:46.821Z,11.50
2018-10-17T06:15:46.817Z,11.64
2018-10-17T06:16:46.890Z,11.78
2018-10-17T06:17:46.817Z,12.02
2018-10-17T06:18:46.819Z,12.05
2018-10-17T06:19:46.812Z,12.15
2018-10-17T06:20:46.815Z,12.27
2018-10-17T06:21:46.810Z,12.30
2018-10-17T06:22:46.807Z,12.39
2018-10-17T06:23:46.805Z,12.56
2018-10-17T06:24:46.805Z,12.56
2018-10-17T06:25:46.807Z,12.49
2018-10-17T06:26:46.804Z,12.45
2018-10-17T06:27:46.801Z,12.57
2018-10-17T06:28:46.800Z,12.60
2018-10-17T06:29:46.798Z,12.84
2018-10-17T06:30:46.805Z,12.67
2018-10-17T06:31:46.799Z,12.69
2018-10-17T06:32:46.794Z,12.92
2018-10-17T06:33:46.844Z,13.07
2018-10-17T06:34:46.861Z,13.18
2018-10-17T06:35:46.791Z,13.15
2018-10-17T06:36:46.793Z,13.15
2018-10-17T06:37:46.799Z,13.03
2018-10-17T06:38:46.789Z,12.96
2018-10-17T06:39:46.787Z,12.99
2018-10-17T06:40:46.791Z,13.03
2018-10-17T06:41:46.788Z,12.99
2018-10-17T06:42:46.787Z,13.02
2018-10-17T06:43:46.837Z,12.95
2018-10-17T06:44:46.786Z,12.92
2018-10-17T06:45:46.785Z,12.96
2018-10-17T06:46:46.786Z,12.99
2018-10-17T06:47:46.785Z,13.22
2018-10-17T06:48:46.784Z,13.58
2018-10-17T06:49:46.784Z,13.84
2018-10-17T06:50:46.781Z,14.07
2018-10-17T06:51:46.784Z,14.35
2018-10-17T06:52:46.781Z,14.60
2018-10-17T06:53:46.785Z,14.74
2018-10-17T06:54:46.791Z,14.95
2018-10-17T06:55:46.783Z,15.06
2018-10-17T06:56:46.784Z,15.24
2018-10-17T06:57:46.784Z,15.51
2018-10-17T06:58:46.784Z,15.68
2018-10-17T06:59:46.784Z,15.79
2018-10-17T07:00:46.787Z,15.82
2018-10-17T07:01:46.847Z,15.97
2018-10-17T07:02:46.783Z,16.15
2018-10-17T07:03:46.788Z,16.37
2018-10-17T07:04:46.790Z,16.59
2018-10-17T07:05:46.791Z,16.80
2018-10-17T07:06:46.797Z,16.89
2018-10-17T07:07:46.792Z,17.00
2018-10-17T07:08:46.801Z,17.25
2018-10-17T07:09:46.798Z,17.47
2018-10-17T07:10:46.798Z,17.63
2018-10-17T07:11:46.818Z,17.73
2018-10-17T07:12:46.805Z,17.94
2018-10-17T07:13:46.807Z,18.06
2018-10-17T07:14:46.809Z,18.22
2018-10-17T07:15:46.899Z,18.28
2018-10-17T07:16:46.812Z,18.29
2018-10-17T07:17:46.821Z,18.47
2018-10-17T07:18:46.828Z,18.65
2018-10-17T07:19:46.825Z,18.70
2018-10-17T07:20:46.830Z,18.74
2018-10-17T07:21:46.833Z,18.67
2018-10-17T07:22:46.842Z,18.47
2018-10-17T07:23:46.838Z,18.28
2018-10-17T07:24:46.846Z,17.95
2018-10-17T07:25:46.850Z,17.89
2018-10-17T07:26:46.855Z,17.89
2018-10-17T07:27:46.856Z,17.87
2018-10-17T07:28:46.898Z,17.84
2018-10-17T07:29:46.971Z,17.94
2018-10-17T07:30:46.865Z,18.04
2018-10-17T07:31:46.872Z,18.07
2018-10-17T07:32:46.876Z,17.99
2018-10-17T07:33:46.878Z,17.94
2018-10-17T07:34:46.882Z,17.74
2018-10-17T07:35:46.980Z,17.64
2018-10-17T07:36:46.889Z,17.67
2018-10-17T07:37:46.892Z,17.79
2018-10-17T07:38:46.899Z,17.74
2018-10-17T07:39:46.897Z,17.70
2018-10-17T07:40:46.899Z,17.64
2018-10-17T07:41:46.908Z,17.62
2018-10-17T07:42:46.908Z,17.48
2018-10-17T07:43:46.912Z,17.48
2018-10-17T07:44:46.915Z,17.74
2018-10-17T07:45:46.983Z,17.97
2018-10-17T07:46:46.921Z,18.29
2018-10-17T07:47:46.927Z,18.59
2018-10-17T07:48:46.926Z,18.80
2018-10-17T07:49:46.935Z,18.82
2018-10-17T07:50:46.935Z,18.74
2018-10-17T07:51:46.937Z,18.74
2018-10-17T07:52:46.940Z,18.83
2018-10-17T07:53:46.948Z,18.76
2018-10-17T07:54:46.944Z,18.84
2018-10-17T07:55:46.949Z,19.18
2018-10-17T07:56:46.952Z,19.39
2018-10-17T07:57:46.956Z,19.73
2018-10-17T07:58:46.963Z,19.98
2018-10-17T07:59:47.031Z,20.20
2018-10-17T08:00:46.967Z,20.35
2018-10-17T08:01:46.974Z,20.59
2018-10-17T08:02:46.970Z,20.66
2018-10-17T08:03:46.975Z,20.77
2018-10-17T08:04:46.975Z,20.76
2018-10-17T08:05:46.986Z,20.84
2018-10-17T08:06:47.077Z,20.77
2018-10-17T08:07:46.987Z,20.65
2018-10-17T08:08:46.991Z,20.49
2018-10-17T08:09:46.993Z,20.62
2018-10-17T08:10:46.998Z,20.77
2018-10-17T08:11:47.009Z,20.79
2018-10-17T08:12:47.004Z,20.91
2018-10-17T08:13:47.008Z,21.06
2018-10-17T08:14:47.011Z,21.19
2018-10-17T08:15:47.015Z,21.34
2018-10-17T08:16:47.021Z,21.42
2018-10-17T08:17:47.028Z,21.71
2018-10-17T08:18:47.026Z,21.98
2018-10-17T08:19:47.029Z,22.31
2018-10-17T08:20:47.034Z,22.50
2018-10-17T08:21:47.036Z,22.46
2018-10-17T08:22:47.041Z,22.71
2018-10-17T08:24:28.187Z,23.07
2018-10-17T08:25:28.115Z,23.04
2018-10-17T08:26:28.128Z,23.24
2018-10-17T08:27:28.133Z,23.43
2018-10-17T08:28:28.146Z,23.87
2018-10-17T08:29:28.138Z,24.26
2018-10-17T08:30:28.154Z,24.83
2018-10-17T08:31:28.154Z,25.05
2018-10-17T08:32:28.155Z,25.24
2018-10-17T08:33:28.160Z,25.54
2018-10-17T08:34:28.163Z,25.64
2018-10-17T08:35:28.316Z,25.52
2018-10-17T08:36:28.579Z,25.24
2018-10-17T08:37:28.673Z,25.06
2018-10-17T08:38:28.193Z,24.56
2018-10-17T08:39:28.195Z,24.38
2018-10-17T08:40:28.205Z,24.17
2018-10-17T08:41:28.214Z,24.02
2018-10-17T08:42:28.221Z,24.19
2018-10-17T08:43:28.225Z,24.23
2018-10-17T08:44:28.232Z,24.52
2018-10-17T08:45:28.244Z,24.63
2018-10-17T08:46:28.260Z,24.94
2018-10-17T08:47:28.263Z,25.28
2018-10-17T08:48:28.266Z,25.71
2018-10-17T08:49:28.276Z,26.09
2018-10-17T08:50:28.324Z,26.54
2018-10-17T08:51:28.293Z,26.76
2018-10-17T08:52:28.312Z,27.05
2018-10-17T08:53:28.310Z,27.29
2018-10-17T08:54:28.319Z,27.50
2018-10-17T08:55:28.334Z,27.38
2018-10-17T08:56:28.344Z,27.29
2018-10-17T08:57:28.354Z,26.43
2018-10-17T08:58:28.363Z,26.44
2018-10-17T08:59:28.375Z,26.36
2018-10-17T09:00:28.392Z,26.65
2018-10-17T09:01:28.398Z,26.92
2018-10-17T09:02:28.407Z,27.01
2018-10-17T09:03:28.418Z,27.28
2018-10-17T09:04:28.430Z,27.82
2018-10-17T09:05:28.439Z,27.67
2018-10-17T09:06:28.455Z,27.13
2018-10-17T09:07:28.462Z,26.96
2018-10-17T09:08:28.474Z,26.11
2018-10-17T09:09:28.484Z,25.71
2018-10-17T09:10:28.499Z,25.53
2018-10-17T09:11:28.508Z,24.94
2018-10-17T09:12:28.524Z,24.54
2018-10-17T09:13:28.584Z,23.72
2018-10-17T09:14:28.539Z,23.65
2018-10-17T09:15:28.552Z,23.67
2018-10-17T09:16:28.621Z,23.77
2018-10-17T09:17:28.572Z,23.46
2018-10-17T09:18:28.585Z,23.31
2018-10-17T09:19:28.662Z,22.60
2018-10-17T09:20:28.778Z,22.34
2018-10-17T09:21:29.021Z,22.10
2018-10-17T09:22:28.747Z,22.04
2018-10-17T09:23:28.626Z,21.75
2018-10-17T09:24:28.636Z,21.61
2018-10-17T09:25:28.677Z,21.35
2018-10-17T09:26:28.656Z,21.27
2018-10-17T09:27:28.665Z,21.27
2018-10-17T09:28:28.676Z,21.16
2018-10-17T09:29:28.683Z,21.06
2018-10-17T09:30:28.771Z,21.11
2018-10-17T09:31:28.689Z,20.95
2018-10-17T09:32:28.699Z,20.96
2018-10-17T09:33:28.706Z,20.76
2018-10-17T09:34:28.713Z,20.66
2018-10-17T09:35:28.767Z,20.65
2018-10-17T09:36:28.727Z,20.66
2018-10-17T09:37:28.732Z,20.69
2018-10-17T09:38:28.740Z,20.74
2018-10-17T09:39:28.753Z,20.66
2018-10-17T09:40:28.753Z,20.50
2018-10-17T09:41:28.760Z,20.35
2018-10-17T09:42:28.765Z,20.27
2018-10-17T09:43:28.770Z,20.25
2018-10-17T09:44:28.781Z,20.50
2018-10-17T09:45:28.782Z,20.69
2018-10-17T09:46:28.785Z,20.89
2018-10-17T09:47:28.796Z,21.11
2018-10-17T09:48:28.803Z,21.20
2018-10-17T09:49:28.809Z,21.56
2018-10-17T09:50:28.817Z,21.97
2018-10-17T09:51:28.823Z,22.28
2018-10-17T09:52:28.832Z,22.53
2018-10-17T09:53:28.977Z,22.67
2018-10-17T09:54:28.851Z,22.93
2018-10-17T09:55:28.861Z,22.84
2018-10-17T09:56:28.864Z,22.69
2018-10-17T09:57:28.880Z,22.80
2018-10-17T09:58:28.887Z,23.05
2018-10-17T09:59:28.904Z,23.24
2018-10-17T10:00:28.903Z,23.43
2018-10-17T10:01:28.916Z,23.15
2018-10-17T10:02:29.029Z,23.02
2018-10-17T10:03:28.938Z,23.08
2018-10-17T10:04:28.952Z,23.04
2018-10-17T10:05:28.971Z,23.01
2018-10-17T10:06:28.972Z,22.92
2018-10-17T10:07:28.985Z,23.01
2018-10-17T10:08:28.993Z,23.23
2018-10-17T10:09:29.008Z,23.38
2018-10-17T10:10:29.017Z,23.40
2018-10-17T10:11:29.038Z,23.27
2018-10-17T10:12:29.041Z,23.26
2018-10-17T10:13:29.049Z,23.38
2018-10-17T10:14:29.057Z,23.62
2018-10-17T10:15:29.077Z,23.86
2018-10-17T10:16:29.084Z,23.79
2018-10-17T10:17:29.103Z,23.72
2018-10-17T10:18:29.100Z,23.29
2018-10-17T10:19:29.109Z,23.31
2018-10-17T10:20:29.120Z,23.15
2018-10-17T10:21:29.125Z,23.29
2018-10-17T10:22:29.159Z,23.64
2018-10-17T10:23:29.203Z,23.80
2018-10-17T10:24:29.154Z,23.77
2018-10-17T10:25:29.164Z,23.86
2018-10-17T10:26:29.163Z,23.90
2018-10-17T10:27:29.178Z,23.72
2018-10-17T10:28:29.189Z,23.61
2018-10-17T10:29:29.194Z,23.68
2018-10-17T10:30:29.202Z,23.47
2018-10-17T10:31:29.245Z,23.40
2018-10-17T10:32:29.216Z,23.60
2018-10-17T10:33:29.223Z,23.68
2018-10-17T10:34:29.229Z,23.35
2018-10-17T10:35:29.236Z,23.32
2018-10-17T10:36:29.246Z,23.53
2018-10-17T10:37:29.252Z,23.65
2018-10-17T10:38:29.254Z,23.57
2018-10-17T10:39:29.275Z,23.67
2018-10-17T10:40:29.293Z,23.60
2018-10-17T10:41:29.315Z,23.77
2018-10-17T10:42:29.291Z,23.79
2018-10-17T10:43:29.289Z,23.65
2018-10-17T10:44:29.302Z,23.58
2018-10-17T10:45:29.322Z,23.55
2018-10-17T10:46:29.312Z,23.92
2018-10-17T10:47:29.320Z,23.83
2018-10-17T10:48:29.322Z,24.00
2018-10-17T10:49:29.347Z,24.23
2018-10-17T10:50:29.335Z,24.20
2018-10-17T10:51:29.426Z,24.17
2018-10-17T10:52:29.353Z,24.27
2018-10-17T10:53:29.362Z,24.41
2018-10-17T10:54:29.373Z,24.57
2018-10-17T10:55:29.365Z,24.59
2018-10-17T10:56:29.372Z,24.47
2018-10-17T10:57:29.387Z,24.42
2018-10-17T10:58:29.484Z,23.94
2018-10-17T10:59:29.658Z,23.52
2018-10-17T11:00:29.398Z,23.64
2018-10-17T11:01:29.403Z,23.87
2018-10-17T11:02:29.410Z,24.07
2018-10-17T11:03:29.417Z,24.14
2018-10-17T11:04:29.514Z,24.14
2018-10-17T11:05:29.592Z,23.86
2018-10-17T11:06:29.446Z,23.94
2018-10-17T11:07:29.444Z,23.98
2018-10-17T11:08:29.527Z,23.90
2018-10-17T11:09:29.455Z,23.85
2018-10-17T11:10:29.466Z,23.92
2018-10-17T11:11:29.496Z,23.61
2018-10-17T11:12:29.473Z,23.62
2018-10-17T11:13:29.477Z,23.46
2018-10-17T11:14:29.692Z,23.64
2018-10-17T11:15:29.539Z,23.86
2018-10-17T11:16:29.495Z,24.16
2018-10-17T11:17:29.508Z,24.20
2018-10-17T11:18:29.507Z,24.20
2018-10-17T11:19:29.515Z,24.13
2018-10-17T11:20:29.529Z,24.24
2018-10-17T11:21:29.529Z,24.38
2018-10-17T11:22:29.548Z,24.57
2018-10-17T11:23:29.543Z,24.71
2018-10-17T11:24:29.563Z,24.85
2018-10-17T11:25:30.235Z,24.88
2018-10-17T11:26:29.565Z,25.05
2018-10-17T11:27:29.564Z,25.12
2018-10-17T11:28:29.569Z,25.05
2018-10-17T11:29:29.646Z,24.94
2018-10-17T11:30:29.592Z,24.61
2018-10-17T11:31:29.648Z,24.69
2018-10-17T11:32:29.596Z,24.79
2018-10-17T11:33:29.605Z,24.69
2018-10-17T11:34:29.610Z,24.73
2018-10-17T11:35:29.617Z,24.77
2018-10-17T11:36:29.631Z,24.85
2018-10-17T11:37:29.655Z,24.80
2018-10-17T11:38:29.634Z,24.76
2018-10-17T11:39:29.639Z,24.92
2018-10-17T11:40:29.662Z,24.90
2018-10-17T11:41:29.665Z,24.83
2018-10-17T11:42:29.654Z,24.82
2018-10-17T11:43:29.666Z,24.90
2018-10-17T11:44:29.786Z,24.79
2018-10-17T11:45:29.698Z,24.67
2018-10-17T11:46:29.680Z,24.67
2018-10-17T11:47:29.689Z,24.68
2018-10-17T11:48:29.693Z,24.91
2018-10-17T11:49:29.698Z,24.88
2018-10-17T11:50:29.717Z,24.64
2018-10-17T11:51:29.710Z,24.56
2018-10-17T11:52:29.714Z,24.38
2018-10-17T11:53:29.720Z,24.19
2018-10-17T11:54:29.746Z,24.26
2018-10-17T11:55:29.736Z,24.37
2018-10-17T11:56:29.744Z,24.19
2018-10-17T11:57:29.743Z,24.22
2018-10-17T11:58:29.766Z,24.23
2018-10-17T11:59:29.777Z,24.24
2018-10-17T12:00:29.765Z,24.26
2018-10-17T12:01:29.769Z,24.35
2018-10-17T12:02:29.829Z,24.23
2018-10-17T12:03:29.850Z,24.01
2018-10-17T12:04:29.924Z,23.77
2018-10-17T12:05:30.185Z,23.80
2018-10-17T12:06:29.921Z,23.60
2018-10-17T12:07:29.828Z,23.60
2018-10-17T12:08:29.809Z,23.43
2018-10-17T12:09:29.935Z,23.46
2018-10-17T12:10:29.826Z,23.55
2018-10-17T12:11:29.868Z,23.75
2018-10-17T12:12:29.842Z,23.83
2018-10-17T12:13:29.857Z,24.00
2018-10-17T12:14:29.880Z,24.12
2018-10-17T12:15:29.968Z,24.17
2018-10-17T12:16:29.857Z,24.16
2018-10-17T12:17:29.863Z,24.04
2018-10-17T12:18:29.866Z,23.61
2018-10-17T12:19:29.877Z,23.70
2018-10-17T12:20:29.880Z,23.65
2018-10-17T12:21:29.894Z,23.57
2018-10-17T12:22:29.891Z,23.34
2018-10-17T12:23:30.751Z,23.17
2018-10-17T12:24:29.901Z,23.15
2018-10-17T12:25:30.010Z,23.24
2018-10-17T12:26:29.913Z,23.31
2018-10-17T12:27:29.918Z,23.46
2018-10-17T12:28:29.991Z,23.60
2018-10-17T12:29:29.984Z,23.58
2018-10-17T12:30:29.950Z,23.67
2018-10-17T12:31:29.941Z,23.65
2018-10-17T12:32:29.961Z,23.61
2018-10-17T12:33:29.950Z,23.53
2018-10-17T12:34:29.954Z,23.43
2018-10-17T12:35:29.962Z,23.22
2018-10-17T12:36:29.974Z,23.01
2018-10-17T12:37:29.972Z,22.67
2018-10-17T12:38:29.993Z,22.57
2018-10-17T12:39:30.091Z,22.68
2018-10-17T12:40:30.138Z,22.87
2018-10-17T12:41:30.080Z,22.97
2018-10-17T12:42:30.017Z,23.02
2018-10-17T12:43:30.003Z,23.27
2018-10-17T12:44:30.013Z,23.23
2018-10-17T12:45:30.022Z,23.14
2018-10-17T12:46:30.023Z,23.15
2018-10-17T12:47:30.031Z,23.23
2018-10-17T12:48:30.046Z,23.32
2018-10-17T12:49:30.037Z,23.49
2018-10-17T12:50:30.068Z,23.49
2018-10-17T12:51:30.048Z,23.46
2018-10-17T12:52:30.094Z,23.46
2018-10-17T12:53:30.126Z,23.38
2018-10-17T12:54:30.062Z,23.40
2018-10-17T12:55:30.072Z,23.46
2018-10-17T12:56:30.077Z,23.58
2018-10-17T12:57:30.087Z,23.57
2018-10-17T12:58:30.096Z,23.64
2018-10-17T12:59:30.124Z,23.71
2018-10-17T13:00:30.099Z,23.67
2018-10-17T13:01:30.102Z,23.72
2018-10-17T13:02:30.110Z,23.89
2018-10-17T13:03:30.116Z,23.90
2018-10-17T13:04:30.120Z,23.87
2018-10-17T13:05:30.125Z,23.89
2018-10-17T13:06:30.130Z,23.83
2018-10-17T13:07:30.136Z,23.87
2018-10-17T13:08:30.141Z,23.80
2018-10-17T13:09:30.149Z,23.89
2018-10-17T13:10:30.150Z,23.80
2018-10-17T13:11:30.175Z,23.71
2018-10-17T13:12:30.164Z,23.80
2018-10-17T13:13:30.167Z,23.83
2018-10-17T13:14:30.176Z,23.86
2018-10-17T13:15:30.181Z,23.89
2018-10-17T13:16:30.186Z,23.85
2018-10-17T13:17:30.190Z,23.79
2018-10-17T13:18:30.246Z,23.67
2018-10-17T13:19:30.207Z,23.46
2018-10-17T13:20:30.229Z,23.32
2018-10-17T13:21:30.213Z,23.26
2018-10-17T13:22:30.218Z,23.22
2018-10-17T13:23:30.224Z,23.09
2018-10-17T13:24:30.241Z,22.92
2018-10-17T13:25:30.236Z,22.77
2018-10-17T13:26:30.242Z,22.60
2018-10-17T13:27:30.248Z,22.56
2018-10-17T13:28:30.275Z,22.52
2018-10-17T13:29:30.255Z,22.46
2018-10-17T13:30:30.276Z,22.35
2018-10-17T13:31:30.269Z,22.27
2018-10-17T13:32:31.218Z,22.28
2018-10-17T13:33:30.478Z,22.29
2018-10-17T13:34:30.297Z,22.27